Time;durP1;ratioP1;P1;durP2;ratioP2;P2;SDS_P1;SDS_P2;PMS_P1;PMS_P2;Temp;Humidity;BMP_temperature;BMP_pressure;BME280_temperature;BME280_humidity;BME280_pressure;Samples;Min_cycle;Max_cycle;Signal;HPM_P1;HPM_P2
2022/03/07 00:02:13;;;;;;;3.05;1.35;;;-0.30;99.90;;;;;;5092554;28;20056;-71
2022/03/07 00:04:39;;;;;;;5.57;0.73;;;-0.30;99.90;;;;;;5111786;28;20059;-72
2022/03/07 00:07:06;;;;;;;6.00;0.90;;;-0.30;99.90;;;;;;5111629;28;20073;-71
2022/03/07 00:09:32;;;;;;;4.13;0.73;;;-0.40;99.90;;;;;;5111614;28;20054;-69
2022/03/07 00:11:58;;;;;;;6.70;0.70;;;-0.40;99.90;;;;;;5111489;28;20047;-71
2022/03/07 00:14:24;;;;;;;3.13;0.60;;;-0.50;99.90;;;;;;5094447;28;20083;-71
2022/03/07 00:16:49;;;;;;;3.78;0.88;;;-0.40;99.90;;;;;;5111615;28;20100;-70
2022/03/07 00:19:16;;;;;;;7.80;1.20;;;-0.50;99.90;;;;;;5111364;28;20054;-70
2022/03/07 00:21:42;;;;;;;8.57;0.82;;;-0.60;99.90;;;;;;5112746;28;20051;-71
2022/03/07 00:24:27;;;;;;;4.40;0.90;;;-0.50;99.90;;;;;;5110811;28;20052;-70
2022/03/07 00:26:52;;;;;;;4.65;0.65;;;-0.60;99.90;;;;;;5111447;28;20087;-70
2022/03/07 00:29:18;;;;;;;5.47;0.82;;;-0.60;99.90;;;;;;5094142;28;20086;-70
2022/03/07 00:31:45;;;;;;;2.58;0.63;;;-0.60;99.90;;;;;;5111220;28;20043;-70
2022/03/07 00:34:11;;;;;;;6.25;0.80;;;-0.60;99.90;;;;;;5111117;28;20055;-70
2022/03/07 00:36:37;;;;;;;3.67;0.80;;;-0.60;99.90;;;;;;5111534;28;20090;-71
2022/03/07 00:42:44;;;;;;;4.03;0.77;;;-0.50;99.90;;;;;;5112848;28;20542;-70
2022/03/07 00:45:10;;;;;;;5.82;0.70;;;-0.50;99.90;;;;;;5111029;28;20044;-70
2022/03/07 00:47:36;;;;;;;4.18;0.85;;;-0.50;99.90;;;;;;5094133;28;20066;-71
2022/03/07 00:50:06;;;;;;;4.55;1.10;;;-0.50;99.90;;;;;;5093731;28;20047;-70
2022/03/07 00:52:32;;;;;;;6.53;0.65;;;-0.50;99.90;;;;;;5110829;28;20043;-69
2022/03/07 00:54:58;;;;;;;4.28;0.90;;;-0.50;99.90;;;;;;5110893;28;20047;-70
2022/03/07 00:57:24;;;;;;;4.88;1.02;;;-0.50;99.90;;;;;;5110551;28;20055;-69
2022/03/07 00:59:50;;;;;;;2.80;0.70;;;-0.50;99.90;;;;;;5094106;28;20047;-70
2022/03/07 01:02:16;;;;;;;7.65;1.23;;;-0.50;99.90;;;;;;5093610;28;20494;-70
2022/03/07 01:04:42;;;;;;;7.95;1.05;;;-0.50;99.90;;;;;;5110564;28;20047;-70
2022/03/07 01:07:08;;;;;;;3.75;0.82;;;-0.50;99.90;;;;;;5093739;28;20055;-70
2022/03/07 01:09:35;;;;;;;6.20;1.25;;;-0.50;99.90;;;;;;5092410;28;20552;-69
2022/03/07 01:12:01;;;;;;;2.38;0.55;;;-0.60;99.90;;;;;;5111073;28;20563;-70
2022/03/07 01:14:28;;;;;;;3.10;0.90;;;-0.60;99.90;;;;;;5110531;28;20035;-70
2022/03/07 01:16:54;;;;;;;13.63;2.58;;;-0.70;99.90;;;;;;5093726;28;20116;-70
2022/03/07 01:19:20;;;;;;;3.45;0.68;;;-0.70;99.90;;;;;;5092838;28;20445;-70
2022/03/07 01:21:46;;;;;;;5.20;0.70;;;-0.70;99.90;;;;;;5110376;28;20047;-71
2022/03/07 01:24:12;;;;;;;5.53;2.13;;;-0.80;99.90;;;;;;5110474;28;20154;-71
2022/03/07 01:26:38;;;;;;;6.03;1.33;;;-0.80;99.90;;;;;;5092855;28;20047;-71
2022/03/07 01:29:05;;;;;;;2.58;0.77;;;-0.80;99.90;;;;;;5110622;28;20043;-71
2022/03/07 01:31:31;;;;;;;4.43;0.80;;;-0.80;99.90;;;;;;5110585;28;20100;-71
2022/03/07 01:33:57;;;;;;;5.43;1.25;;;-0.80;99.90;;;;;;5110590;28;20059;-71
2022/03/07 01:36:23;;;;;;;4.05;0.80;;;-0.80;99.90;;;;;;5093665;28;20529;-71
2022/03/07 01:38:49;;;;;;;5.38;1.08;;;-0.90;99.90;;;;;;5110051;28;20466;-71
2022/03/07 01:41:16;;;;;;;4.20;1.02;;;-0.90;99.90;;;;;;5093089;28;20441;-71
2022/03/07 01:43:42;;;;;;;3.58;0.90;;;-1.00;99.90;;;;;;5076503;28;20086;-70
2022/03/07 01:46:09;;;;;;;5.80;0.90;;;-1.00;99.90;;;;;;5110190;28;20075;-71
2022/03/07 01:48:36;;;;;;;3.45;1.00;;;-1.00;99.90;;;;;;5076631;28;20051;-70
2022/03/07 01:51:03;;;;;;;3.30;0.70;;;-1.00;99.90;;;;;;5059804;28;20073;-71
2022/03/07 01:53:30;;;;;;;2.70;0.90;;;-1.00;99.90;;;;;;5093497;28;20406;-71
2022/03/07 01:55:56;;;;;;;1.77;0.70;;;-1.10;99.90;;;;;;5110357;28;20052;-71
2022/03/07 01:58:22;;;;;;;4.28;0.85;;;-1.10;99.90;;;;;;5109885;28;20056;-70
2022/03/07 02:00:48;;;;;;;3.25;0.80;;;-1.10;99.90;;;;;;5093115;28;20071;-71
2022/03/07 02:03:14;;;;;;;4.53;1.20;;;-1.10;99.90;;;;;;5111352;28;20139;-71
2022/03/07 02:05:41;;;;;;;6.32;1.45;;;-1.10;99.90;;;;;;5113685;28;20043;-71
2022/03/07 02:08:07;;;;;;;4.85;1.17;;;-1.10;99.90;;;;;;5112993;28;20082;-72
2022/03/07 02:10:33;;;;;;;6.18;0.90;;;-1.10;99.90;;;;;;5113643;28;20066;-71
2022/03/07 02:12:59;;;;;;;3.40;0.90;;;-1.10;99.90;;;;;;5095940;28;20051;-70
2022/03/07 02:15:25;;;;;;;5.38;0.82;;;-1.10;99.90;;;;;;5113216;28;20066;-71
2022/03/07 02:17:51;;;;;;;6.60;1.25;;;-1.20;99.90;;;;;;5112782;28;20047;-71
2022/03/07 02:20:17;;;;;;;4.43;0.70;;;-1.20;99.90;;;;;;5113169;27;20498;-71
2022/03/07 02:22:43;;;;;;;3.75;1.10;;;-1.30;99.90;;;;;;5099055;27;20099;-71
2022/03/07 02:25:09;;;;;;;7.13;1.17;;;-1.30;99.90;;;;;;5117374;27;20138;-71
2022/03/07 02:27:35;;;;;;;4.78;1.60;;;-1.30;99.90;;;;;;5099527;27;20130;-70
2022/03/07 02:30:05;;;;;;;4.28;1.05;;;-1.30;99.90;;;;;;5116966;27;20035;-71
2022/03/07 02:32:33;;;;;;;4.45;1.73;;;-1.30;99.90;;;;;;5117024;27;20051;-70
2022/03/07 02:34:59;;;;;;;6.65;2.85;;;-1.30;99.90;;;;;;5099866;27;20150;-72
2022/03/07 02:37:24;;;;;;;8.23;1.75;;;-1.30;99.90;;;;;;5099432;27;20046;-71
2022/03/07 02:39:50;;;;;;;5.30;1.15;;;-1.40;99.90;;;;;;5116918;27;20043;-70
2022/03/07 02:42:16;;;;;;;10.02;1.63;;;-1.40;99.90;;;;;;5116787;27;20054;-71
2022/03/07 02:44:43;;;;;;;7.85;1.30;;;-1.40;99.90;;;;;;5116803;27;20047;-70
2022/03/07 02:47:14;;;;;;;2.53;0.88;;;-1.40;99.90;;;;;;5116765;27;20090;-71
2022/03/07 02:49:40;;;;;;;4.38;1.20;;;-1.40;99.90;;;;;;5099060;27;20046;-70
2022/03/07 02:52:08;;;;;;;5.20;1.27;;;-1.40;99.90;;;;;;5116514;27;20050;-70
2022/03/07 02:54:34;;;;;;;4.65;0.90;;;-1.40;99.90;;;;;;5099589;27;20055;-70
2022/03/07 02:57:00;;;;;;;4.82;1.20;;;-1.40;99.90;;;;;;5116775;27;20464;-70
2022/03/07 02:59:26;;;;;;;4.30;1.00;;;-1.40;99.90;;;;;;5116353;27;20525;-71
2022/03/07 03:01:52;;;;;;;5.85;1.90;;;-1.50;99.90;;;;;;5083903;28;20504;-71
2022/03/07 03:04:17;;;;;;;6.68;0.95;;;-1.40;99.90;;;;;;5106415;27;20051;-71
2022/03/07 03:06:43;;;;;;;6.70;1.10;;;-1.50;99.90;;;;;;5116251;27;20088;-71
2022/03/07 03:09:09;;;;;;;3.42;0.80;;;-1.50;99.90;;;;;;5116215;27;20552;-71
2022/03/07 03:11:35;;;;;;;6.65;1.27;;;-1.50;99.90;;;;;;5099618;27;20047;-70
2022/03/07 03:14:02;;;;;;;4.70;0.82;;;-1.50;99.90;;;;;;5116184;27;20400;-70
2022/03/07 03:16:28;;;;;;;3.15;0.77;;;-1.50;99.90;;;;;;5116198;27;20062;-70
2022/03/07 03:18:54;;;;;;;4.07;0.90;;;-1.50;99.90;;;;;;5116022;27;20047;-70
2022/03/07 03:21:20;;;;;;;6.47;1.05;;;-1.50;99.90;;;;;;5115180;27;20043;-70
2022/03/07 03:23:48;;;;;;;3.38;0.82;;;-1.50;99.90;;;;;;5098968;27;20130;-71
2022/03/07 03:26:14;;;;;;;4.13;1.23;;;-1.60;99.90;;;;;;5116209;27;20069;-70
2022/03/07 03:28:42;;;;;;;4.55;1.13;;;-1.60;99.90;;;;;;5098768;27;20096;-71
2022/03/07 03:31:11;;;;;;;4.05;0.73;;;-1.60;99.90;;;;;;5115485;27;20047;-71
2022/03/07 03:33:38;;;;;;;5.00;0.85;;;-1.60;99.90;;;;;;5114992;27;20047;-71
2022/03/07 03:36:04;;;;;;;4.43;1.33;;;-1.70;99.90;;;;;;5115834;27;20047;-70
2022/03/07 03:38:30;;;;;;;3.92;1.23;;;-1.70;99.90;;;;;;5115540;27;20054;-70
2022/03/07 03:40:55;;;;;;;6.95;1.10;;;-1.60;99.90;;;;;;5115681;27;20398;-70
2022/03/07 03:43:22;;;;;;;8.02;1.10;;;-1.70;99.90;;;;;;5115540;27;20051;-71
2022/03/07 03:45:48;;;;;;;4.05;1.00;;;-1.70;99.90;;;;;;5098402;27;20086;-70
2022/03/07 03:48:14;;;;;;;2.47;0.73;;;-1.70;99.90;;;;;;5115802;27;20456;-70
2022/03/07 03:50:40;;;;;;;5.53;1.13;;;-1.70;99.90;;;;;;5115507;27;20383;-70
2022/03/07 03:53:06;;;;;;;5.47;1.15;;;-1.70;99.90;;;;;;5133818;27;20086;-71
2022/03/07 03:55:32;;;;;;;2.60;1.05;;;-1.70;99.90;;;;;;5134251;27;20074;-71
2022/03/07 03:57:58;;;;;;;5.15;1.10;;;-1.70;99.90;;;;;;5115371;27;20051;-71
2022/03/07 04:00:24;;;;;;;5.47;1.73;;;-1.70;99.90;;;;;;5112033;27;20047;-71
2022/03/07 04:02:50;;;;;;;5.13;1.10;;;-1.80;99.90;;;;;;5094733;28;20043;-70
2022/03/07 04:05:16;;;;;;;4.50;1.05;;;-1.70;99.90;;;;;;5094614;28;20050;-71
2022/03/07 04:07:43;;;;;;;2.40;1.02;;;-1.80;99.90;;;;;;5094460;28;20058;-70
2022/03/07 04:10:10;;;;;;;3.92;1.08;;;-1.80;99.90;;;;;;5094796;28;20101;-70
2022/03/07 04:12:36;;;;;;;5.80;1.50;;;-1.80;99.90;;;;;;5077612;28;20068;-71
2022/03/07 04:15:03;;;;;;;5.38;0.98;;;-1.80;99.90;;;;;;5094240;28;20046;-70
2022/03/07 04:17:29;;;;;;;7.00;1.35;;;-1.80;99.90;;;;;;5093875;28;20100;-71
2022/03/07 04:19:55;;;;;;;6.50;1.15;;;-1.80;99.90;;;;;;5094284;28;20069;-70
2022/03/07 04:22:21;;;;;;;3.33;0.73;;;-1.90;99.90;;;;;;5094161;28;20044;-71
2022/03/07 04:24:46;;;;;;;4.05;0.93;;;-1.90;99.90;;;;;;5077573;28;20051;-70
2022/03/07 04:27:12;;;;;;;6.18;0.73;;;-1.90;99.90;;;;;;5094729;28;20486;-70
2022/03/07 04:29:38;;;;;;;3.70;1.27;;;-1.90;99.90;;;;;;5077140;28;20046;-69
2022/03/07 04:32:04;;;;;;;4.47;1.08;;;-1.90;99.90;;;;;;5077533;28;20405;-70
2022/03/07 04:34:30;;;;;;;12.85;4.00;;;-1.90;99.90;;;;;;5093973;28;20039;-71
2022/03/07 04:36:56;;;;;;;5.10;0.95;;;-2.00;99.90;;;;;;5094343;28;20130;-70
2022/03/07 04:39:23;;;;;;;3.83;1.10;;;-1.90;99.90;;;;;;5094216;28;20101;-70
2022/03/07 04:41:49;;;;;;;6.30;2.22;;;-2.00;99.90;;;;;;5077485;28;20047;-70
2022/03/07 04:44:15;;;;;;;2.47;0.93;;;-2.00;99.90;;;;;;5093396;28;20046;-71
2022/03/07 04:46:41;;;;;;;2.83;1.30;;;-2.00;99.90;;;;;;5094055;28;20098;-70
2022/03/07 04:49:10;;;;;;;4.45;0.95;;;-2.00;99.90;;;;;;5077280;28;20050;-71
2022/03/07 04:51:36;;;;;;;7.88;1.02;;;-2.00;99.90;;;;;;5093799;28;20429;-71
2022/03/07 04:54:02;;;;;;;6.38;0.95;;;-2.10;99.90;;;;;;5093848;28;20052;-70
2022/03/07 04:56:28;;;;;;;8.30;1.95;;;-2.10;99.90;;;;;;5093984;28;20108;-70
2022/03/07 04:58:53;;;;;;;8.15;1.20;;;-2.10;99.90;;;;;;5077171;28;20551;-70
2022/03/07 05:01:19;;;;;;;6.63;1.30;;;-2.10;99.90;;;;;;5104236;27;20072;-70
2022/03/07 05:03:46;;;;;;;2.42;0.90;;;-2.10;99.90;;;;;;5096967;27;20051;-69
2022/03/07 05:06:12;;;;;;;4.68;0.88;;;-2.10;99.90;;;;;;5114302;27;20078;-71
2022/03/07 05:08:38;;;;;;;6.25;1.10;;;-2.10;99.90;;;;;;5114007;27;20050;-70
2022/03/07 05:11:05;;;;;;;4.22;0.98;;;-2.10;99.90;;;;;;5096976;28;20047;-70
2022/03/07 05:13:31;;;;;;;4.63;0.98;;;-2.20;99.90;;;;;;5114009;27;20051;-70
2022/03/07 05:15:57;;;;;;;3.55;1.00;;;-2.20;99.90;;;;;;5113687;28;20035;-70
2022/03/07 05:18:22;;;;;;;4.30;1.33;;;-2.20;99.90;;;;;;5113961;28;20138;-70
2022/03/07 05:20:48;;;;;;;7.10;1.48;;;-2.20;99.90;;;;;;5097344;28;20047;-70
2022/03/07 05:23:14;;;;;;;5.10;1.30;;;-2.20;99.90;;;;;;5113784;28;20528;-71
2022/03/07 05:25:40;;;;;;;5.75;1.75;;;-2.20;99.90;;;;;;5096762;28;20066;-71
2022/03/07 05:28:06;;;;;;;8.40;1.40;;;-2.20;99.90;;;;;;5096991;28;20135;-70
2022/03/07 05:30:32;;;;;;;8.30;1.50;;;-2.10;99.90;;;;;;5113901;28;20051;-70
2022/03/07 05:32:57;;;;;;;11.45;2.00;;;-2.10;99.90;;;;;;5096729;28;20137;-71
2022/03/07 05:35:23;;;;;;;6.47;1.80;;;-2.10;99.90;;;;;;5096692;28;20078;-70
2022/03/07 05:37:49;;;;;;;4.75;1.50;;;-2.10;99.90;;;;;;5114009;28;20062;-71
2022/03/07 05:40:17;;;;;;;7.55;1.73;;;-2.10;99.90;;;;;;5113751;28;20112;-70
2022/03/07 05:42:43;;;;;;;7.78;1.52;;;-2.20;99.90;;;;;;5113754;28;20051;-70
2022/03/07 05:45:11;;;;;;;6.28;2.78;;;-2.10;99.90;;;;;;5113663;28;20490;-70
2022/03/07 05:47:38;;;;;;;4.35;1.27;;;-2.10;99.90;;;;;;5096730;28;20134;-70
2022/03/07 05:50:05;;;;;;;6.30;1.13;;;-2.10;99.90;;;;;;5113560;28;20058;-70
2022/03/07 05:52:32;;;;;;;4.95;1.60;;;-2.20;99.90;;;;;;5096660;28;20061;-70
2022/03/07 05:54:58;;;;;;;4.32;1.38;;;-2.20;99.90;;;;;;5115309;27;20054;-71
2022/03/07 05:57:23;;;;;;;7.07;2.35;;;-2.20;99.90;;;;;;5117851;27;20047;-70
2022/03/07 05:59:49;;;;;;;8.77;2.30;;;-2.20;99.90;;;;;;5100640;27;20082;-71
2022/03/07 06:02:15;;;;;;;16.38;5.35;;;-2.20;99.90;;;;;;5098511;28;20047;-71
2022/03/07 06:04:42;;;;;;;11.55;4.07;;;-2.20;99.90;;;;;;5096978;28;20055;-70
2022/03/07 06:07:08;;;;;;;9.55;4.25;;;-2.20;99.90;;;;;;5079889;28;20048;-70
2022/03/07 06:09:34;;;;;;;18.77;7.25;;;-2.20;99.90;;;;;;5080124;28;20047;-70
2022/03/07 06:12:00;;;;;;;27.98;10.88;;;-2.20;99.90;;;;;;5080282;28;20516;-70
2022/03/07 06:14:26;;;;;;;10.75;5.05;;;-2.20;99.90;;;;;;5080104;28;20047;-70
2022/03/07 06:16:52;;;;;;;9.43;3.63;;;-2.20;99.90;;;;;;5096339;28;20456;-70
2022/03/07 06:19:17;;;;;;;9.63;4.10;;;-2.20;99.90;;;;;;5079828;28;20086;-70
2022/03/07 06:21:43;;;;;;;9.70;3.60;;;-2.10;99.90;;;;;;5096596;28;20056;-70
2022/03/07 06:24:09;;;;;;;7.90;2.67;;;-2.10;99.90;;;;;;5079994;28;20044;-70
2022/03/07 06:26:35;;;;;;;13.05;4.97;;;-2.10;99.90;;;;;;5096955;28;20104;-71
2022/03/07 06:29:02;;;;;;;10.25;3.60;;;-2.10;99.90;;;;;;5079843;28;20059;-70
2022/03/07 06:31:27;;;;;;;6.93;3.35;;;-2.00;99.90;;;;;;5096319;28;20054;-70
2022/03/07 06:33:53;;;;;;;7.95;2.63;;;-2.00;99.90;;;;;;5096690;28;20043;-70
2022/03/07 06:36:19;;;;;;;5.80;2.58;;;-2.00;99.90;;;;;;5079643;28;20089;-70
2022/03/07 06:38:45;;;;;;;8.65;2.90;;;-2.00;99.90;;;;;;5078674;28;20402;-70
2022/03/07 06:41:10;;;;;;;7.35;2.28;;;-2.00;99.90;;;;;;5079067;28;20052;-71
2022/03/07 06:43:37;;;;;;;5.35;2.03;;;-1.90;99.90;;;;;;5096217;28;20054;-70
2022/03/07 06:46:03;;;;;;;6.00;2.22;;;-1.90;99.90;;;;;;5095763;28;20043;-69
2022/03/07 06:48:29;;;;;;;6.95;2.00;;;-1.80;99.90;;;;;;5096574;28;20118;-70
2022/03/07 06:50:55;;;;;;;7.15;2.22;;;-1.70;99.90;;;;;;5096464;28;20054;-71
2022/03/07 06:53:21;;;;;;;5.97;1.90;;;-1.70;99.90;;;;;;5079109;28;20451;-70
2022/03/07 06:55:46;;;;;;;4.78;1.80;;;-1.60;99.90;;;;;;5096266;28;20491;-70
2022/03/07 06:58:12;;;;;;;5.95;1.77;;;-1.50;99.90;;;;;;5096257;28;20144;-70
2022/03/07 07:00:38;;;;;;;4.60;1.45;;;-1.50;99.90;;;;;;5100584;27;20062;-70
2022/03/07 07:03:05;;;;;;;3.92;1.58;;;-1.40;99.90;;;;;;5098902;27;20047;-70
2022/03/07 07:05:32;;;;;;;5.18;1.83;;;-1.30;99.90;;;;;;5116257;27;20057;-70
2022/03/07 07:07:59;;;;;;;8.57;2.03;;;-1.30;99.90;;;;;;5098553;27;20047;-70
2022/03/07 07:10:25;;;;;;;9.20;2.90;;;-1.10;99.90;;;;;;5116044;27;20047;-71
2022/03/07 07:12:52;;;;;;;8.57;2.35;;;-1.00;99.90;;;;;;5116059;27;20138;-70
2022/03/07 07:15:19;;;;;;;8.27;2.42;;;-0.90;99.90;;;;;;5098791;27;20055;-71
2022/03/07 07:17:45;;;;;;;9.35;2.30;;;-0.70;99.90;;;;;;5098619;27;20043;-70
2022/03/07 07:20:11;;;;;;;5.97;2.55;;;-0.60;99.90;;;;;;5116062;27;20043;-70
2022/03/07 07:22:38;;;;;;;6.10;2.55;;;-0.40;99.90;;;;;;5115746;27;20126;-71
2022/03/07 07:25:06;;;;;;;7.07;2.47;;;-0.20;99.90;;;;;;5115796;27;20082;-70
2022/03/07 07:27:32;;;;;;;21.70;9.63;;;0.00;99.90;;;;;;5098754;27;20057;-71
2022/03/07 07:29:58;;;;;;;26.95;8.27;;;0.20;99.90;;;;;;5065541;27;20502;-71
2022/03/07 07:32:24;;;;;;;13.68;5.00;;;0.30;99.90;;;;;;5115761;27;20047;-71
2022/03/07 07:34:50;;;;;;;12.98;3.10;;;0.50;99.90;;;;;;5098782;27;20129;-71
2022/03/07 07:37:15;;;;;;;11.57;3.95;;;0.80;99.90;;;;;;5115787;27;20126;-71
2022/03/07 07:39:41;;;;;;;10.35;3.40;;;1.10;99.90;;;;;;5115967;27;20138;-70
2022/03/07 07:42:07;;;;;;;15.20;3.72;;;1.20;99.90;;;;;;5098497;27;20508;-70
2022/03/07 07:44:33;;;;;;;6.13;2.70;;;1.40;99.90;;;;;;5098460;27;20051;-70
2022/03/07 07:46:59;;;;;;;8.30;2.80;;;1.50;99.90;;;;;;5115729;27;20054;-70
2022/03/07 07:49:25;;;;;;;11.50;2.97;;;1.70;99.90;;;;;;5115138;27;20085;-70
2022/03/07 07:51:51;;;;;;;11.55;4.70;;;1.90;99.90;;;;;;5115266;27;20051;-70
2022/03/07 07:54:17;;;;;;;8.00;2.70;;;2.00;99.90;;;;;;5115286;27;20043;-70
2022/03/07 07:56:43;;;;;;;9.13;2.40;;;2.20;99.90;;;;;;5098153;27;20569;-70
2022/03/07 07:59:11;;;;;;;11.20;3.45;;;2.30;99.90;;;;;;5115157;27;20050;-72
2022/03/07 08:01:37;;;;;;;11.35;3.20;;;2.40;99.90;;;;;;5084961;28;20087;-72
2022/03/07 08:04:03;;;;;;;6.63;3.35;;;2.60;99.90;;;;;;5094027;28;20051;-71
2022/03/07 08:06:29;;;;;;;9.40;3.92;;;2.60;99.90;;;;;;5077217;28;20048;-71
2022/03/07 08:08:55;;;;;;;9.85;2.30;;;2.70;99.90;;;;;;5077759;28;20070;-72
2022/03/07 08:11:23;;;;;;;9.68;2.63;;;2.80;99.90;;;;;;5113310;28;20750;-73
2022/03/07 08:13:48;;;;;;;7.75;2.22;;;2.90;99.90;;;;;;5077458;28;20510;-73
2022/03/07 08:16:16;;;;;;;8.30;2.42;;;3.00;99.90;;;;;;5094742;28;20039;-72
2022/03/07 08:18:42;;;;;;;8.13;2.80;;;3.10;99.90;;;;;;5093598;28;20061;-70
2022/03/07 08:21:08;;;;;;;10.57;2.45;;;3.20;99.90;;;;;;5076907;28;20048;-71
2022/03/07 08:23:34;;;;;;;8.80;2.30;;;3.30;99.90;;;;;;5077492;28;20086;-71
2022/03/07 08:25:59;;;;;;;8.38;2.30;;;3.40;99.90;;;;;;5094621;28;20052;-72
2022/03/07 08:28:25;;;;;;;9.00;1.88;;;3.40;99.90;;;;;;5094318;28;20112;-72
2022/03/07 08:30:51;;;;;;;5.30;1.80;;;3.50;99.90;;;;;;5094462;28;20048;-72
2022/03/07 08:33:17;;;;;;;11.77;2.33;;;3.60;99.90;;;;;;5077332;28;20083;-71
2022/03/07 08:35:45;;;;;;;9.25;2.50;;;3.70;99.90;;;;;;5094129;28;20159;-71
2022/03/07 08:38:11;;;;;;;8.77;1.95;;;3.80;99.90;;;;;;5077780;28;20452;-72
2022/03/07 08:40:37;;;;;;;5.78;2.13;;;3.90;99.90;;;;;;5077356;28;20071;-71
2022/03/07 08:43:03;;;;;;;6.53;2.00;;;3.90;99.90;;;;;;5077148;28;20094;-72
2022/03/07 08:45:33;;;;;;;9.50;2.33;;;4.00;99.90;;;;;;5094831;28;20055;-71
2022/03/07 08:48:00;;;;;;;8.95;1.98;;;4.10;99.90;;;;;;5094103;28;20058;-72
2022/03/07 08:50:26;;;;;;;6.60;1.98;;;4.10;99.90;;;;;;5076563;28;20044;-72
2022/03/07 08:52:52;;;;;;;7.70;1.90;;;4.20;99.90;;;;;;5093273;28;20057;-71
2022/03/07 08:55:18;;;;;;;6.47;1.63;;;4.30;99.90;;;;;;5094098;28;20048;-71
2022/03/07 08:57:48;;;;;;;9.98;2.80;;;4.40;99.90;;;;;;5077271;28;20510;-71
2022/03/07 09:00:15;;;;;;;4.82;1.90;;;4.60;99.90;;;;;;5095582;28;20065;-72
2022/03/07 09:02:41;;;;;;;6.88;1.98;;;4.60;99.90;;;;;;5114201;27;20490;-70
2022/03/07 09:05:07;;;;;;;7.55;1.95;;;4.70;99.90;;;;;;5096950;27;20055;-72
2022/03/07 09:07:36;;;;;;;15.57;2.17;;;4.80;99.90;;;;;;5097280;28;20138;-71
2022/03/07 09:10:05;;;;;;;7.00;2.33;;;4.90;99.90;;;;;;5096961;28;20118;-72
2022/03/07 09:12:31;;;;;;;9.93;2.00;;;5.00;99.90;;;;;;5080640;28;20051;-73
2022/03/07 09:15:09;;;;;;;5.72;1.92;;;5.10;99.90;;;;;;5113667;28;20058;-71
2022/03/07 09:17:35;;;;;;;7.18;1.38;;;5.20;99.90;;;;;;5097508;28;20482;-71
2022/03/07 09:20:02;;;;;;;5.80;1.55;;;5.40;99.90;;;;;;5113725;28;20556;-71
2022/03/07 09:22:28;;;;;;;8.07;1.75;;;5.50;99.90;;;;;;5113881;28;20463;-71
2022/03/07 09:25:05;;;;;;;9.43;2.00;;;5.70;99.90;;;;;;5114023;28;20086;-72
2022/03/07 09:27:39;;;;;;;16.35;4.10;;;5.80;99.90;;;;;;5131172;28;20100;-72
2022/03/07 09:30:07;;;;;;;6.47;1.70;;;6.00;99.90;;;;;;5115868;27;20043;-71
2022/03/07 09:32:33;;;;;;;6.22;1.67;;;6.10;99.90;;;;;;5117520;27;20124;-71
2022/03/07 09:34:59;;;;;;;6.63;1.80;;;6.20;99.90;;;;;;5118178;27;20432;-72
2022/03/07 09:37:25;;;;;;;7.10;1.50;;;6.30;99.90;;;;;;5101090;27;20049;-73
2022/03/07 09:39:50;;;;;;;6.05;2.45;;;6.40;99.90;;;;;;5118125;27;20035;-72
2022/03/07 09:42:16;;;;;;;7.60;1.80;;;6.40;99.90;;;;;;5117355;27;20514;-73
2022/03/07 09:44:42;;;;;;;8.70;2.05;;;6.50;99.90;;;;;;5117808;27;20134;-72
2022/03/07 09:47:08;;;;;;;7.60;1.67;;;6.60;99.90;;;;;;5100472;27;20089;-72
2022/03/07 09:49:34;;;;;;;8.13;2.22;;;6.80;99.90;;;;;;5117813;27;20039;-70
2022/03/07 09:52:01;;;;;;;6.47;1.90;;;7.00;99.90;;;;;;5117741;27;20070;-71
2022/03/07 09:54:27;;;;;;;7.25;1.52;;;7.10;99.90;;;;;;5083973;27;20066;-72
2022/03/07 09:56:53;;;;;;;11.02;1.70;;;7.20;99.90;;;;;;5117799;27;20433;-72
2022/03/07 09:59:20;;;;;;;10.00;2.08;;;7.10;99.90;;;;;;5117763;27;20043;-71
2022/03/07 10:02:05;;;;;;;5.47;2.10;;;7.30;99.90;;;;;;5103155;28;20048;-71
2022/03/07 10:04:39;;;;;;;7.97;2.25;;;7.50;99.90;;;;;;5096989;28;20097;-72
2022/03/07 10:07:05;;;;;;;6.57;1.23;;;7.60;99.90;;;;;;5114020;28;20066;-71
2022/03/07 10:09:31;;;;;;;3.50;1.48;;;7.80;99.90;;;;;;5080207;28;20040;-72
2022/03/07 10:12:03;;;;;;;6.15;1.48;;;7.90;99.90;;;;;;5096782;28;20555;-72
2022/03/07 10:14:47;;;;;;;10.82;1.60;;;7.90;99.90;;;;;;5063535;28;20559;-71
2022/03/07 10:17:46;;;;;;;5.43;1.42;;;8.10;99.90;;;;;;5096885;28;20055;-70
2022/03/07 10:20:30;;;;;;;8.55;2.00;;;8.10;99.90;;;;;;5096823;28;20120;-74
2022/03/07 10:22:59;;;;;;;5.72;1.40;;;8.20;99.90;;;;;;5096683;28;20200;-72
2022/03/07 10:25:31;;;;;;;6.20;1.67;;;8.60;99.90;;;;;;5080294;28;20044;-73
2022/03/07 10:28:03;;;;;;;5.88;1.58;;;8.60;99.90;;;;;;5098502;28;20115;-72
2022/03/07 10:30:33;;;;;;;4.80;1.50;;;8.60;99.90;;;;;;5096712;28;20100;-71
2022/03/07 10:33:05;;;;;;;5.15;1.17;;;8.60;99.90;;;;;;5096384;28;20058;-72
2022/03/07 10:35:34;;;;;;;10.00;1.40;;;8.60;99.90;;;;;;5079124;28;20043;-72
2022/03/07 10:38:14;;;;;;;6.38;1.55;;;8.40;99.90;;;;;;5079307;28;20083;-72
2022/03/07 10:40:47;;;;;;;7.60;1.40;;;8.40;99.90;;;;;;5079109;28;20070;-71
2022/03/07 10:43:14;;;;;;;8.05;1.75;;;8.50;99.90;;;;;;5096113;28;20071;-71
2022/03/07 10:45:48;;;;;;;14.02;1.70;;;8.50;99.90;;;;;;5096369;28;20127;-73
2022/03/07 10:48:15;;;;;;;9.18;1.52;;;8.70;99.90;;;;;;5079401;28;20082;-71
2022/03/07 10:50:52;;;;;;;7.07;1.67;;;8.80;99.90;;;;;;5080182;28;20414;-72
2022/03/07 10:53:19;;;;;;;7.70;1.30;;;8.90;99.90;;;;;;5096182;28;20047;-72
2022/03/07 10:56:00;;;;;;;7.05;1.40;;;9.30;99.90;;;;;;5096240;28;20130;-72
2022/03/07 10:58:27;;;;;;;6.75;2.45;;;10.10;99.90;;;;;;5096280;28;20490;-73
2022/03/07 11:01:04;;;;;;;5.78;1.75;;;10.60;99.90;;;;;;5103019;27;20373;-72
2022/03/07 11:03:35;;;;;;;6.18;1.38;;;11.00;99.90;;;;;;5108243;27;20291;-72
2022/03/07 11:06:02;;;;;;;13.82;2.17;;;11.50;99.90;;;;;;5100375;27;20040;-72
2022/03/07 11:08:28;;;;;;;8.07;1.85;;;11.40;99.90;;;;;;5126559;27;20051;-72
2022/03/07 11:10:57;;;;;;;7.13;1.65;;;11.40;99.90;;;;;;5098293;27;20078;-72
2022/03/07 11:13:26;;;;;;;7.53;1.48;;;11.20;99.90;;;;;;5116301;27;20077;-72
2022/03/07 11:15:56;;;;;;;10.18;1.50;;;11.00;99.90;;;;;;5116073;27;20494;-72
2022/03/07 11:18:23;;;;;;;5.85;1.52;;;10.80;99.90;;;;;;5099321;27;20062;-73
2022/03/07 11:20:51;;;;;;;6.85;1.20;;;10.70;99.90;;;;;;5116263;27;20047;-72
2022/03/07 11:23:24;;;;;;;10.20;1.60;;;10.30;99.90;;;;;;5098100;27;20107;-72
2022/03/07 11:26:11;;;;;;;7.53;1.67;;;10.30;99.90;;;;;;5098981;27;20047;-72
2022/03/07 11:28:38;;;;;;;11.68;2.03;;;10.00;99.90;;;;;;5116462;27;20058;-72
2022/03/07 11:31:04;;;;;;;9.13;1.90;;;9.90;99.90;;;;;;5115595;27;20398;-72
2022/03/07 11:33:37;;;;;;;10.75;1.88;;;10.90;99.90;;;;;;5099061;27;20039;-72
2022/03/07 11:36:06;;;;;;;5.15;1.45;;;11.70;99.90;;;;;;5098458;27;20554;-72
2022/03/07 11:38:32;;;;;;;6.38;1.38;;;12.60;99.90;;;;;;5098517;27;20398;-72
2022/03/07 11:41:06;;;;;;;8.40;1.65;;;13.20;99.90;;;;;;5115965;27;20098;-72
2022/03/07 11:44:13;;;;;;;11.02;3.22;;;14.20;98.40;;;;;;5134150;27;20057;-73
2022/03/07 11:46:47;;;;;;;7.78;1.60;;;14.70;96.70;;;;;;5114604;27;20051;-73
2022/03/07 11:49:39;;;;;;;5.80;1.17;;;14.70;95.80;;;;;;5098604;27;20051;-72
2022/03/07 11:52:08;;;;;;;8.15;1.40;;;15.20;94.90;;;;;;5110542;27;20187;-73
2022/03/07 11:54:48;;;;;;;7.60;2.03;;;15.80;93.90;;;;;;5097737;27;20490;-72
2022/03/07 11:57:40;;;;;;;8.48;1.92;;;16.20;93.30;;;;;;5115350;27;20130;-72
2022/03/07 12:00:18;;;;;;;5.72;1.35;;;16.60;93.10;;;;;;5114237;27;20138;-73
2022/03/07 12:02:47;;;;;;;12.50;1.95;;;17.10;92.10;;;;;;5093994;28;20104;-72
2022/03/07 12:05:32;;;;;;;8.00;1.70;;;17.90;90.00;;;;;;5077537;28;20070;-72
2022/03/07 12:08:21;;;;;;;15.15;1.70;;;18.50;72.70;;;;;;5094842;28;20047;-73
2022/03/07 12:11:18;;;;;;;7.75;1.60;;;18.90;69.40;;;;;;5091953;28;20114;-72
2022/03/07 12:13:48;;;;;;;7.50;1.30;;;19.10;69.70;;;;;;5094191;28;20465;-73
2022/03/07 12:16:44;;;;;;;10.88;2.28;;;20.10;58.30;;;;;;5113023;28;20538;-70
2022/03/07 12:19:18;;;;;;;7.13;2.20;;;20.30;55.20;;;;;;5094131;28;20075;-73
2022/03/07 12:21:47;;;;;;;6.88;1.45;;;20.90;55.60;;;;;;5078153;28;20051;-73
2022/03/07 12:24:15;;;;;;;6.75;1.60;;;21.60;51.00;;;;;;5113103;28;20058;-72
2022/03/07 12:26:45;;;;;;;7.15;2.10;;;21.70;48.10;;;;;;5094454;28;20104;-73
2022/03/07 12:29:12;;;;;;;7.78;1.77;;;22.00;46.10;;;;;;5094859;28;20061;-73
2022/03/07 12:31:47;;;;;;;11.68;1.63;;;22.30;46.30;;;;;;5077518;28;20062;-73
2022/03/07 12:34:13;;;;;;;6.32;1.38;;;22.60;44.60;;;;;;5077447;28;20138;-73
2022/03/07 12:36:47;;;;;;;8.30;1.40;;;23.00;45.00;;;;;;5077356;28;20139;-73
2022/03/07 12:39:14;;;;;;;7.13;1.55;;;23.40;43.50;;;;;;5094305;28;20052;-73
2022/03/07 12:41:42;;;;;;;10.10;2.00;;;23.30;42.10;;;;;;5094182;28;20135;-73
2022/03/07 12:44:09;;;;;;;11.20;1.73;;;23.30;42.50;;;;;;5077212;28;20142;-73
2022/03/07 12:46:35;;;;;;;8.32;1.98;;;23.50;42.40;;;;;;5060256;28;20035;-74
2022/03/07 12:49:01;;;;;;;10.75;2.00;;;23.70;41.80;;;;;;5077250;28;20517;-71
2022/03/07 12:51:27;;;;;;;9.25;1.40;;;24.00;41.30;;;;;;5077091;28;20044;-71
2022/03/07 12:53:56;;;;;;;10.65;1.40;;;23.90;40.20;;;;;;5076754;28;20080;-71
2022/03/07 12:56:25;;;;;;;9.75;2.03;;;24.20;40.20;;;;;;5094030;28;20062;-71